Kezdőlap
METAR-TAF:

METAR-TAF

Repülőterek :

Capo Mele

Andora, Olaszország

földrajzi szélesség: 43-57N, földrajzi hosszúság: 008-10E, magasság: 220 m

Jelenlegi meteorológiai megfigyelések

A jelentés 1 órával és 1 perccel ezelõtt készült, 08:55 UTC
Kelet-északkeleti szél 2 kt
Hőmérséklet 8°C
Páratartalom 81%
Légköri nyomás 1014 hPa
Látótávolság 10 km, vagy több
Kevés felhő 2300 lábon

METAR: LIMU 280855Z 06002KT 9999 FEW023 08/05 Q1014 RMK OVC SCT060 QUK 1 QUL 1 SE VIS MAR 30 KM VIS MIN 9999

Idő: 10:56 (09:56 UTC)


TAF: hiányzik

Meteorológiai megfigyelések és előrejelzések több, mint 4000 repülőtéren (METAR és TAF jelentéseket).

A térképen piros és sárga pontok jelzik az elérhető meteorológiai állomásokat.

Mozgassa az egeret a pont fölött, hogy megjelenjen az állomás neve.

Azután kattintson az időjárási megfigyelések és előrejelzések megtekintéséhez.

A térkép megváltoztatása: kattintson a fekete keresztel jelölt zöld gombra ráközelítéshez, a vonallal jelölt zöld gombra távolításhoz, vagy a zöld nyilakra a szomszédos térképek eléréséhez.


METAR-TAF: